Time;durP1;ratioP1;P1;durP2;ratioP2;P2;SDS_P1;SDS_P2;PMS_P1;PMS_P2;Temp;Humidity;BMP_temperature;BMP_pressure;BME280_temperature;BME280_humidity;BME280_pressure;Samples;Min_cycle;Max_cycle;Signal;HPM_P1;HPM_P2
2022/09/09 00:01:31;;;;;;;1.67;1.40;;;14.70;98.00;;;;;;5035055;28;20469;-72
2022/09/09 00:04:02;;;;;;;1.60;1.40;;;14.60;98.00;;;;;;5035252;28;20454;-72
2022/09/09 00:06:35;;;;;;;1.60;1.30;;;14.70;98.00;;;;;;5052592;28;20457;-72
2022/09/09 00:09:07;;;;;;;1.50;1.37;;;14.70;98.00;;;;;;5052662;28;20457;-73
2022/09/09 00:11:43;;;;;;;1.27;1.27;;;14.70;98.00;;;;;;5052647;28;20458;-72
2022/09/09 00:14:19;;;;;;;2.17;1.47;;;14.80;98.00;;;;;;5052421;28;20489;-72
2022/09/09 00:16:54;;;;;;;1.50;1.40;;;14.90;98.00;;;;;;5035757;28;20448;-72
2022/09/09 00:19:28;;;;;;;1.70;1.40;;;14.70;98.00;;;;;;5052537;28;20936;-72
2022/09/09 00:22:08;;;;;;;1.30;1.30;;;14.60;98.00;;;;;;5052477;28;20479;-73
2022/09/09 00:24:41;;;;;;;3.23;1.60;;;14.50;98.00;;;;;;5052646;28;20453;-72
2022/09/09 00:27:16;;;;;;;1.20;1.10;;;14.50;98.00;;;;;;5034601;28;20496;-72
2022/09/09 00:29:55;;;;;;;2.00;1.30;;;14.50;98.00;;;;;;5052637;28;20460;-72
2022/09/09 00:32:25;;;;;;;1.33;1.10;;;14.50;98.00;;;;;;5052434;28;20556;-72
2022/09/09 00:34:57;;;;;;;2.00;1.40;;;14.70;98.00;;;;;;5052442;28;20468;-72
2022/09/09 00:37:27;;;;;;;6.40;1.80;;;14.50;98.00;;;;;;5052457;28;20548;-72
2022/09/09 00:39:59;;;;;;;2.00;1.40;;;14.40;98.00;;;;;;5051693;28;20821;-72
2022/09/09 00:42:38;;;;;;;2.00;1.50;;;14.50;98.00;;;;;;5052655;28;20536;-72
2022/09/09 00:45:21;;;;;;;1.50;1.10;;;14.50;98.00;;;;;;5034384;28;20487;-73
2022/09/09 00:47:51;;;;;;;1.70;1.17;;;14.50;98.00;;;;;;5052372;28;20457;-72
2022/09/09 00:50:43;;;;;;;1.50;1.30;;;14.60;98.00;;;;;;5034149;28;20456;-72
2022/09/09 00:53:29;;;;;;;1.70;1.43;;;14.70;98.00;;;;;;5052014;28;20504;-73
2022/09/09 00:56:07;;;;;;;1.50;1.40;;;14.70;98.00;;;;;;5051799;28;20811;-72
2022/09/09 00:58:36;;;;;;;1.93;1.30;;;14.90;98.00;;;;;;5035195;28;20468;-72
2022/09/09 01:01:07;;;;;;;1.80;1.50;;;14.90;98.00;;;;;;5051913;28;20955;-72
2022/09/09 01:03:39;;;;;;;1.70;1.60;;;14.80;98.00;;;;;;5051779;28;20527;-72
2022/09/09 01:06:16;;;;;;;2.80;1.70;;;14.80;98.00;;;;;;5051643;28;20492;-72
2022/09/09 01:09:03;;;;;;;1.33;1.27;;;14.80;98.00;;;;;;5051796;28;20457;-72
2022/09/09 01:11:39;;;;;;;1.40;1.20;;;14.70;98.00;;;;;;5051853;28;20493;-72
2022/09/09 01:14:23;;;;;;;1.50;1.27;;;14.80;98.00;;;;;;5050974;28;20551;-72
2022/09/09 01:16:54;;;;;;;1.30;1.20;;;14.90;98.00;;;;;;5051100;28;20458;-73
2022/09/09 01:19:31;;;;;;;1.47;1.30;;;14.80;98.00;;;;;;5051094;28;20457;-72
2022/09/09 01:22:07;;;;;;;1.70;1.20;;;14.90;98.00;;;;;;5050963;28;20847;-72
2022/09/09 01:24:42;;;;;;;1.67;1.40;;;15.00;98.00;;;;;;5051179;28;20882;-73
2022/09/09 01:27:11;;;;;;;1.40;1.23;;;15.20;98.00;;;;;;5051007;28;20457;-72
2022/09/09 01:29:39;;;;;;;2.43;1.40;;;15.20;98.00;;;;;;5051017;28;20460;-72
2022/09/09 01:32:40;;;;;;;1.67;1.40;;;15.30;98.00;;;;;;5034006;28;20457;-72
2022/09/09 01:35:11;;;;;;;2.03;1.30;;;15.40;98.00;;;;;;5051755;28;20749;-72
2022/09/09 01:37:38;;;;;;;1.87;1.40;;;15.50;98.00;;;;;;5034280;28;20916;-72
2022/09/09 01:40:06;;;;;;;1.70;1.53;;;15.40;98.00;;;;;;5051746;28;21178;-72
2022/09/09 01:42:35;;;;;;;1.50;1.30;;;15.20;98.00;;;;;;5052157;28;20461;-72
2022/09/09 01:45:02;;;;;;;1.50;1.30;;;15.10;98.00;;;;;;5051743;28;20546;-72
2022/09/09 01:47:30;;;;;;;1.20;1.10;;;15.20;98.00;;;;;;5051383;28;20461;-72
2022/09/09 01:49:57;;;;;;;1.37;1.27;;;15.10;98.00;;;;;;5051760;28;20458;-72
2022/09/09 01:52:24;;;;;;;1.43;1.17;;;15.00;98.00;;;;;;5035204;28;20453;-72
2022/09/09 01:54:51;;;;;;;1.50;1.20;;;14.90;98.00;;;;;;5055108;28;20510;-72
2022/09/09 01:57:24;;;;;;;1.40;1.27;;;14.80;98.00;;;;;;5055221;28;20508;-72
2022/09/09 02:00:03;;;;;;;1.30;1.20;;;14.80;98.00;;;;;;5055232;28;20465;-73
2022/09/09 02:02:36;;;;;;;1.30;1.20;;;14.60;98.00;;;;;;5055245;28;20472;-72
2022/09/09 02:05:16;;;;;;;1.30;1.23;;;14.60;98.00;;;;;;5055018;28;20469;-72
2022/09/09 02:07:47;;;;;;;2.23;1.50;;;14.60;98.00;;;;;;5053618;28;20460;-73
2022/09/09 02:10:20;;;;;;;1.53;1.30;;;14.50;98.00;;;;;;5055194;28;20461;-72
2022/09/09 02:12:51;;;;;;;1.87;1.40;;;14.50;98.00;;;;;;5054887;28;20495;-72
2022/09/09 02:15:24;;;;;;;1.60;1.30;;;14.60;98.00;;;;;;5054860;28;20866;-73
2022/09/09 02:17:55;;;;;;;1.30;1.30;;;14.60;98.00;;;;;;5055134;28;20792;-72
2022/09/09 02:20:24;;;;;;;1.30;1.23;;;14.70;98.00;;;;;;5054585;28;20476;-72
2022/09/09 02:22:53;;;;;;;1.40;1.30;;;14.60;98.00;;;;;;5054979;28;20547;-73
2022/09/09 02:25:23;;;;;;;1.83;1.40;;;14.80;98.00;;;;;;5054712;28;20457;-72
2022/09/09 02:27:52;;;;;;;1.50;1.20;;;14.70;98.00;;;;;;5054799;28;20465;-72
2022/09/09 02:30:21;;;;;;;1.43;1.10;;;14.80;98.00;;;;;;5054877;28;20549;-72
2022/09/09 02:32:51;;;;;;;1.60;1.40;;;14.70;98.00;;;;;;5054668;28;20461;-72
2022/09/09 02:35:22;;;;;;;1.37;1.17;;;14.70;98.00;;;;;;5054501;28;20473;-72
2022/09/09 02:37:53;;;;;;;1.83;1.30;;;14.70;98.00;;;;;;5054679;28;20454;-72
2022/09/09 02:40:21;;;;;;;1.50;1.40;;;14.80;98.00;;;;;;5054927;28;20464;-72
2022/09/09 02:42:49;;;;;;;2.33;1.50;;;14.90;98.00;;;;;;5037085;28;20544;-73
2022/09/09 02:45:24;;;;;;;1.73;1.20;;;14.70;98.00;;;;;;5054396;28;20963;-72
2022/09/09 02:47:58;;;;;;;1.50;1.20;;;14.70;98.00;;;;;;5054200;28;20463;-72
2022/09/09 02:50:31;;;;;;;2.80;1.30;;;14.50;98.00;;;;;;5054354;28;20463;-72
2022/09/09 02:53:08;;;;;;;1.50;1.20;;;14.40;98.00;;;;;;5054153;28;20456;-72
2022/09/09 02:55:42;;;;;;;1.60;1.30;;;14.30;98.00;;;;;;5054289;28;20560;-73
2022/09/09 02:58:12;;;;;;;1.33;1.17;;;14.20;98.00;;;;;;5054255;28;20844;-72
2022/09/09 03:00:41;;;;;;;1.50;1.33;;;14.30;98.00;;;;;;5053910;28;20549;-72
2022/09/09 03:03:09;;;;;;;1.50;1.20;;;14.20;98.00;;;;;;5053881;28;20480;-72
2022/09/09 03:05:36;;;;;;;1.47;1.20;;;14.20;98.00;;;;;;5036187;28;20473;-72
2022/09/09 03:08:05;;;;;;;2.43;1.40;;;13.90;98.00;;;;;;5053953;28;20453;-72
2022/09/09 03:10:32;;;;;;;1.67;1.20;;;14.00;98.00;;;;;;5053963;28;20456;-73
2022/09/09 03:13:00;;;;;;;1.90;1.30;;;13.90;98.00;;;;;;5053705;28;20514;-72
2022/09/09 03:15:28;;;;;;;2.37;1.67;;;14.00;98.00;;;;;;5035081;28;20456;-72
2022/09/09 03:17:57;;;;;;;1.20;1.10;;;14.00;98.00;;;;;;5053767;28;20452;-72
2022/09/09 03:20:25;;;;;;;4.97;2.83;;;13.90;98.00;;;;;;5053582;28;20457;-72
2022/09/09 03:22:54;;;;;;;2.00;1.30;;;13.80;98.00;;;;;;5053971;28;20449;-72
2022/09/09 03:25:23;;;;;;;1.40;1.20;;;13.80;98.00;;;;;;5053476;28;20901;-72
2022/09/09 03:27:52;;;;;;;1.33;1.20;;;13.80;98.00;;;;;;5053797;28;20460;-72
2022/09/09 03:30:22;;;;;;;4.20;1.30;;;13.90;98.00;;;;;;5053420;28;20504;-72
2022/09/09 03:32:49;;;;;;;1.30;1.30;;;13.80;98.00;;;;;;5053624;28;20528;-72
2022/09/09 03:35:17;;;;;;;1.30;1.10;;;13.90;98.00;;;;;;5053447;28;20477;-72
2022/09/09 03:37:45;;;;;;;1.50;1.33;;;14.10;98.00;;;;;;5053915;28;20453;-72
2022/09/09 03:40:12;;;;;;;1.43;1.20;;;14.20;98.00;;;;;;5053562;28;20480;-72
2022/09/09 03:42:40;;;;;;;1.87;1.20;;;14.30;98.00;;;;;;5053475;28;20507;-72
2022/09/09 03:45:10;;;;;;;1.43;1.13;;;14.40;98.00;;;;;;5053176;28;20459;-72
2022/09/09 03:47:37;;;;;;;1.60;1.40;;;14.60;98.00;;;;;;5053287;28;20455;-72
2022/09/09 03:50:08;;;;;;;2.00;1.50;;;14.60;98.00;;;;;;5053230;28;20453;-72
2022/09/09 03:52:37;;;;;;;1.40;1.30;;;14.60;98.00;;;;;;5035534;28;20465;-72
2022/09/09 03:55:06;;;;;;;1.47;1.30;;;14.50;98.00;;;;;;5053012;28;20487;-72
2022/09/09 03:57:34;;;;;;;1.20;1.20;;;14.50;98.00;;;;;;5053051;28;20472;-72
2022/09/09 04:00:05;;;;;;;1.63;1.27;;;14.40;98.00;;;;;;5052999;28;20453;-72
2022/09/09 04:02:32;;;;;;;1.57;1.53;;;14.50;98.00;;;;;;5052946;28;20465;-72
2022/09/09 04:04:59;;;;;;;1.67;1.20;;;14.40;98.00;;;;;;5052725;28;20457;-73
2022/09/09 04:07:28;;;;;;;2.23;1.50;;;14.50;98.00;;;;;;5052839;28;20507;-72
2022/09/09 04:09:56;;;;;;;2.37;1.43;;;14.60;98.00;;;;;;5052932;28;20567;-72
2022/09/09 04:12:24;;;;;;;1.97;1.50;;;14.60;98.00;;;;;;5052724;28;21026;-72
2022/09/09 04:14:52;;;;;;;1.70;1.37;;;14.60;98.00;;;;;;5017944;28;21021;-72
2022/09/09 04:17:19;;;;;;;1.93;1.40;;;14.70;98.00;;;;;;5052541;28;21157;-72
2022/09/09 04:19:46;;;;;;;1.63;1.30;;;14.60;98.00;;;;;;5052587;28;20458;-72
2022/09/09 04:22:15;;;;;;;2.47;1.37;;;14.80;98.00;;;;;;5052562;28;20458;-72
2022/09/09 04:24:42;;;;;;;1.50;1.43;;;14.70;98.00;;;;;;5052823;28;20465;-72
2022/09/09 04:27:12;;;;;;;1.50;1.30;;;14.70;98.00;;;;;;5052595;28;20936;-72
2022/09/09 04:29:39;;;;;;;2.37;1.20;;;14.70;98.00;;;;;;5052391;28;20947;-72
2022/09/09 04:32:06;;;;;;;1.50;1.40;;;14.70;98.00;;;;;;5052564;28;20500;-72
2022/09/09 04:34:33;;;;;;;1.40;1.30;;;14.50;98.00;;;;;;5052777;28;20482;-72
2022/09/09 04:37:01;;;;;;;1.33;1.20;;;14.60;98.00;;;;;;5052304;28;20487;-72
2022/09/09 04:39:29;;;;;;;1.47;1.20;;;14.60;98.00;;;;;;5052738;28;20936;-72
2022/09/09 04:41:57;;;;;;;5.03;1.40;;;14.60;98.00;;;;;;5052300;28;20532;-72
2022/09/09 04:44:26;;;;;;;1.57;1.23;;;14.60;98.00;;;;;;5034632;28;20463;-72
2022/09/09 04:46:53;;;;;;;1.30;1.20;;;14.60;98.00;;;;;;5052150;28;20464;-72
2022/09/09 04:49:20;;;;;;;1.60;1.30;;;14.50;98.00;;;;;;5051978;28;20458;-72
2022/09/09 04:51:47;;;;;;;1.30;1.30;;;14.30;98.00;;;;;;5051992;28;20490;-72
2022/09/09 04:54:14;;;;;;;5.60;1.70;;;14.20;98.00;;;;;;5051734;28;20515;-72
2022/09/09 04:56:43;;;;;;;1.40;1.30;;;14.20;98.00;;;;;;5051912;28;20845;-72
2022/09/09 04:59:10;;;;;;;1.97;1.43;;;14.20;98.00;;;;;;5051817;28;20819;-72
2022/09/09 05:01:39;;;;;;;1.30;1.20;;;14.20;98.00;;;;;;5051640;28;20552;-72
2022/09/09 05:04:06;;;;;;;1.60;1.37;;;14.30;98.00;;;;;;5051718;28;20461;-72
2022/09/09 05:06:33;;;;;;;1.87;1.20;;;14.20;98.00;;;;;;5051576;28;20465;-72
2022/09/09 05:09:00;;;;;;;1.50;1.20;;;14.10;98.00;;;;;;5051597;28;20449;-72
2022/09/09 05:11:29;;;;;;;2.60;1.43;;;14.10;98.00;;;;;;5051639;28;20461;-72
2022/09/09 05:13:58;;;;;;;1.77;1.27;;;14.20;98.00;;;;;;5051765;28;20490;-72
2022/09/09 05:16:26;;;;;;;1.83;1.30;;;14.20;98.00;;;;;;5034454;28;20894;-72
2022/09/09 05:18:57;;;;;;;1.20;1.10;;;14.30;98.00;;;;;;5052002;28;20454;-72
2022/09/09 05:21:26;;;;;;;1.40;1.30;;;14.30;98.00;;;;;;5051947;28;21143;-72
2022/09/09 05:23:53;;;;;;;1.50;1.37;;;14.30;98.00;;;;;;5051536;28;20500;-72
2022/09/09 05:26:22;;;;;;;1.70;1.40;;;14.30;98.00;;;;;;5053249;28;20466;-72
2022/09/09 05:28:49;;;;;;;1.30;1.27;;;14.40;98.00;;;;;;5038509;28;20943;-72
2022/09/09 05:31:18;;;;;;;1.83;1.37;;;14.40;98.00;;;;;;5055801;28;20457;-72
2022/09/09 05:33:47;;;;;;;1.50;1.20;;;14.40;98.00;;;;;;5056113;28;20460;-73
2022/09/09 05:36:17;;;;;;;1.87;1.77;;;14.50;98.00;;;;;;5055810;28;20458;-73
2022/09/09 05:38:45;;;;;;;4.83;2.10;;;14.60;98.00;;;;;;5055940;28;20457;-72
2022/09/09 05:41:15;;;;;;;1.40;1.30;;;14.60;98.00;;;;;;5055880;28;20477;-72
2022/09/09 05:43:44;;;;;;;1.40;1.20;;;14.60;98.00;;;;;;5055646;28;20568;-72
2022/09/09 05:46:13;;;;;;;3.10;1.77;;;14.70;98.00;;;;;;5055342;28;20458;-72
2022/09/09 05:48:42;;;;;;;1.53;1.40;;;15.10;98.00;;;;;;5055486;28;20467;-72
2022/09/09 05:51:12;;;;;;;2.00;1.63;;;15.30;98.00;;;;;;5054924;28;20461;-72
2022/09/09 05:53:40;;;;;;;2.50;1.70;;;15.40;98.00;;;;;;5055488;28;20472;-72
2022/09/09 05:56:10;;;;;;;1.97;1.70;;;15.40;98.00;;;;;;5054913;28;20492;-72
2022/09/09 05:58:38;;;;;;;1.60;1.20;;;15.40;98.00;;;;;;5055173;28;20461;-73
2022/09/09 06:01:06;;;;;;;3.07;1.60;;;15.40;98.00;;;;;;5055027;28;20461;-73
2022/09/09 06:03:34;;;;;;;1.93;1.40;;;15.60;98.00;;;;;;5055117;28;20457;-72
2022/09/09 06:06:05;;;;;;;1.70;1.40;;;15.50;98.00;;;;;;5054780;28;20935;-73
2022/09/09 06:08:32;;;;;;;1.53;1.17;;;15.60;98.00;;;;;;5055026;28;20458;-72
2022/09/09 06:11:05;;;;;;;1.50;1.40;;;15.80;98.00;;;;;;5055200;28;21033;-72
2022/09/09 06:13:32;;;;;;;2.33;1.30;;;15.80;98.00;;;;;;5037223;28;20464;-72
2022/09/09 06:16:00;;;;;;;1.50;1.40;;;15.90;98.00;;;;;;5054877;28;20533;-71
2022/09/09 06:18:27;;;;;;;1.50;1.30;;;15.90;98.00;;;;;;5055179;28;20454;-71
2022/09/09 06:20:56;;;;;;;1.30;1.30;;;15.90;98.00;;;;;;5055148;28;20450;-72
2022/09/09 06:23:23;;;;;;;1.90;1.50;;;16.00;98.00;;;;;;5054844;28;20879;-72
2022/09/09 06:25:50;;;;;;;1.60;1.50;;;16.10;98.00;;;;;;5054993;28;20947;-72
2022/09/09 06:28:19;;;;;;;2.97;1.60;;;16.10;98.00;;;;;;5054859;28;20454;-72
2022/09/09 06:30:47;;;;;;;2.20;1.70;;;16.20;98.00;;;;;;5054764;28;20469;-72
2022/09/09 06:33:14;;;;;;;1.80;1.43;;;16.20;98.00;;;;;;5054862;28;20458;-72
2022/09/09 06:35:41;;;;;;;1.73;1.47;;;16.30;98.00;;;;;;5054478;28;20520;-71
2022/09/09 06:38:08;;;;;;;2.50;1.67;;;16.40;98.00;;;;;;5054258;28;20458;-71
2022/09/09 06:40:36;;;;;;;1.53;1.40;;;16.50;98.00;;;;;;5054477;28;20469;-72
2022/09/09 06:43:03;;;;;;;1.70;1.30;;;16.50;98.00;;;;;;5054395;28;20454;-71
2022/09/09 06:45:36;;;;;;;2.83;1.60;;;16.50;98.00;;;;;;5054330;28;20473;-71
2022/09/09 06:48:03;;;;;;;2.50;1.70;;;16.70;98.00;;;;;;5054309;28;20457;-71
2022/09/09 06:50:31;;;;;;;2.10;1.40;;;16.70;98.00;;;;;;5053972;28;20458;-71
2022/09/09 06:52:58;;;;;;;1.50;1.40;;;16.70;98.00;;;;;;5054306;28;20454;-72
2022/09/09 06:55:25;;;;;;;1.50;1.20;;;16.80;98.00;;;;;;5053839;28;20481;-72
2022/09/09 06:57:52;;;;;;;2.07;1.70;;;16.90;98.00;;;;;;5053638;28;20544;-72
2022/09/09 07:00:19;;;;;;;8.87;1.97;;;17.00;98.00;;;;;;5054119;28;20461;-71
2022/09/09 07:02:50;;;;;;;2.87;1.80;;;17.10;98.00;;;;;;5036293;28;20461;-72
2022/09/09 07:05:17;;;;;;;2.50;1.60;;;17.20;98.00;;;;;;5053792;28;20524;-72
2022/09/09 07:07:51;;;;;;;2.57;1.67;;;17.20;98.00;;;;;;5053863;28;20461;-72
2022/09/09 07:10:18;;;;;;;6.40;1.90;;;17.40;98.00;;;;;;5053614;28;20462;-72
2022/09/09 07:12:45;;;;;;;1.70;1.50;;;17.50;98.00;;;;;;5053696;28;20944;-72
2022/09/09 07:15:14;;;;;;;1.90;1.70;;;17.60;98.00;;;;;;5053764;28;20505;-71
2022/09/09 07:17:41;;;;;;;1.40;1.40;;;17.60;98.00;;;;;;5052925;28;20457;-72
2022/09/09 07:20:11;;;;;;;1.77;1.53;;;17.70;98.00;;;;;;5058225;28;20467;-71
2022/09/09 07:22:38;;;;;;;1.80;1.50;;;17.80;98.00;;;;;;5049856;28;20523;-71
2022/09/09 07:25:06;;;;;;;2.27;1.30;;;17.80;98.00;;;;;;5061664;28;20481;-72
2022/09/09 07:27:38;;;;;;;4.77;1.83;;;17.90;98.00;;;;;;5062714;28;20479;-72
2022/09/09 07:30:06;;;;;;;3.37;1.70;;;18.00;98.00;;;;;;5044538;28;20477;-71
2022/09/09 07:32:33;;;;;;;1.90;1.47;;;18.10;98.00;;;;;;5051322;28;20596;-72
2022/09/09 07:35:00;;;;;;;1.77;1.50;;;18.00;98.00;;;;;;5040268;28;20482;-72
2022/09/09 07:37:29;;;;;;;2.33;1.53;;;18.30;98.00;;;;;;5050673;28;20986;-72
2022/09/09 07:39:56;;;;;;;2.03;1.73;;;18.40;98.00;;;;;;5058035;28;20461;-72
2022/09/09 07:42:23;;;;;;;2.13;1.80;;;18.60;98.00;;;;;;5036074;28;20457;-72
2022/09/09 07:44:54;;;;;;;1.97;1.70;;;18.70;98.00;;;;;;5050454;28;20838;-72
2022/09/09 07:47:22;;;;;;;2.40;1.57;;;18.90;98.00;;;;;;5060953;28;20458;-71
2022/09/09 07:49:49;;;;;;;1.80;1.50;;;19.00;98.00;;;;;;5044282;28;20455;-72
2022/09/09 07:52:16;;;;;;;2.90;1.50;;;19.10;98.00;;;;;;5054170;28;20453;-72
2022/09/09 07:54:45;;;;;;;2.57;1.70;;;19.10;98.00;;;;;;5058044;28;20481;-72
2022/09/09 07:57:12;;;;;;;1.70;1.40;;;19.20;98.00;;;;;;5069143;28;20947;-73
2022/09/09 07:59:39;;;;;;;2.43;2.00;;;19.30;98.00;;;;;;5059466;28;20460;-73
2022/09/09 08:02:06;;;;;;;1.70;1.40;;;19.30;98.00;;;;;;5069434;28;20461;-72
2022/09/09 08:04:34;;;;;;;3.40;1.50;;;19.40;98.00;;;;;;5045268;28;20462;-73
2022/09/09 08:07:03;;;;;;;1.40;1.30;;;19.40;98.00;;;;;;5057095;28;20467;-68
2022/09/09 08:09:32;;;;;;;1.33;1.30;;;19.40;98.00;;;;;;5063244;28;20453;-70
2022/09/09 08:12:01;;;;;;;2.50;1.60;;;19.40;98.00;;;;;;5049144;28;20549;-69
2022/09/09 08:14:29;;;;;;;1.60;1.40;;;19.60;98.00;;;;;;5065109;28;20452;-73
2022/09/09 08:16:57;;;;;;;1.60;1.50;;;19.70;98.00;;;;;;5067859;28;20488;-72
2022/09/09 08:19:24;;;;;;;1.50;1.30;;;19.90;98.00;;;;;;5059394;28;20469;-71
2022/09/09 08:21:51;;;;;;;2.73;1.30;;;19.90;98.00;;;;;;5066932;28;20457;-72
2022/09/09 08:24:19;;;;;;;3.30;1.57;;;20.10;98.00;;;;;;5068991;28;20777;-70
2022/09/09 08:26:48;;;;;;;1.60;1.30;;;20.10;98.00;;;;;;5062658;28;20449;-72
2022/09/09 08:29:17;;;;;;;2.03;1.50;;;20.20;98.00;;;;;;5051303;28;20462;-71
2022/09/09 08:31:46;;;;;;;1.80;1.47;;;20.30;98.00;;;;;;5051791;28;20462;-70
2022/09/09 08:34:14;;;;;;;1.63;1.60;;;20.20;98.00;;;;;;5050666;28;20940;-72
2022/09/09 08:36:44;;;;;;;1.53;1.40;;;20.40;98.00;;;;;;5052568;28;20493;-71
2022/09/09 08:39:13;;;;;;;1.30;1.30;;;20.50;98.00;;;;;;5052051;28;20453;-71
2022/09/09 08:42:02;;;;;;;1.83;1.47;;;20.70;98.00;;;;;;5052290;28;20457;-72
2022/09/09 08:44:43;;;;;;;1.70;1.40;;;20.90;98.00;;;;;;5051030;28;20526;-71
2022/09/09 08:47:19;;;;;;;1.53;1.37;;;20.90;98.00;;;;;;5051317;28;20540;-71
2022/09/09 08:50:04;;;;;;;2.60;1.50;;;21.00;98.00;;;;;;5051404;28;20457;-71
2022/09/09 08:52:40;;;;;;;2.17;1.70;;;21.00;98.00;;;;;;5050281;28;20454;-70
2022/09/09 08:55:19;;;;;;;1.50;1.40;;;21.00;98.00;;;;;;5050794;28;20492;-71
2022/09/09 08:57:46;;;;;;;3.03;1.50;;;21.00;98.00;;;;;;5051148;28;20457;-71
2022/09/09 09:00:15;;;;;;;4.60;1.80;;;21.20;98.00;;;;;;5051204;28;20883;-71
2022/09/09 09:02:54;;;;;;;2.37;1.80;;;21.30;98.00;;;;;;5033364;28;20473;-71
2022/09/09 09:05:27;;;;;;;1.93;1.50;;;21.30;98.00;;;;;;5051230;28;20947;-70
2022/09/09 09:08:03;;;;;;;1.50;1.40;;;21.20;98.00;;;;;;5051108;28;20469;-70
2022/09/09 09:10:43;;;;;;;1.40;1.40;;;21.20;98.00;;;;;;5034327;28;20464;-71
2022/09/09 09:13:16;;;;;;;2.30;1.60;;;21.30;98.00;;;;;;5051092;28;20490;-70
2022/09/09 09:15:47;;;;;;;1.90;1.50;;;21.30;98.00;;;;;;5031121;28;20574;-72
2022/09/09 09:18:15;;;;;;;1.93;1.63;;;21.40;98.00;;;;;;5030770;28;20841;-70
2022/09/09 09:20:52;;;;;;;1.40;1.30;;;21.40;98.00;;;;;;5031048;28;20812;-69
2022/09/09 09:23:23;;;;;;;1.97;1.70;;;21.50;98.00;;;;;;5030770;28;20549;-71
2022/09/09 09:25:59;;;;;;;2.40;1.73;;;21.60;98.00;;;;;;5031677;28;20463;-70
2022/09/09 09:28:29;;;;;;;2.00;1.60;;;21.80;98.00;;;;;;5031713;28;20508;-70
2022/09/09 09:31:04;;;;;;;1.70;1.40;;;22.00;98.00;;;;;;5031827;28;20466;-71
2022/09/09 09:33:40;;;;;;;1.80;1.47;;;22.40;98.00;;;;;;5031622;28;20931;-70
2022/09/09 09:36:08;;;;;;;2.53;1.63;;;22.70;98.00;;;;;;5031454;28;20490;-70
2022/09/09 09:38:37;;;;;;;2.10;1.53;;;22.80;98.00;;;;;;5031812;28;20545;-70
2022/09/09 09:41:05;;;;;;;2.00;1.70;;;22.90;98.00;;;;;;5031625;28;20462;-70
2022/09/09 09:43:33;;;;;;;1.50;1.30;;;22.80;97.00;;;;;;5031235;28;20973;-70
2022/09/09 09:46:05;;;;;;;2.17;1.80;;;22.90;98.00;;;;;;5031556;28;20450;-70
2022/09/09 09:48:33;;;;;;;1.93;1.40;;;23.10;97.50;;;;;;5042025;28;20476;-71
2022/09/09 09:51:03;;;;;;;2.43;1.33;;;23.30;96.60;;;;;;5051258;28;20943;-70
2022/09/09 09:53:33;;;;;;;1.80;1.50;;;23.60;96.00;;;;;;5051596;28;20445;-71
2022/09/09 09:56:02;;;;;;;1.63;1.60;;;23.80;94.40;;;;;;5051142;28;20540;-70
2022/09/09 09:58:33;;;;;;;1.63;1.50;;;24.00;94.50;;;;;;5051452;28;20944;-70
2022/09/09 10:01:02;;;;;;;1.67;1.37;;;24.20;94.00;;;;;;5050985;28;20549;-71
2022/09/09 10:03:31;;;;;;;1.73;1.33;;;24.40;94.40;;;;;;5033915;28;20453;-72
2022/09/09 10:05:58;;;;;;;1.73;1.40;;;24.50;92.90;;;;;;5050818;28;20470;-70
2022/09/09 10:08:26;;;;;;;1.63;1.50;;;24.70;92.00;;;;;;5051287;28;20453;-71
2022/09/09 10:11:13;;;;;;;2.37;1.50;;;24.70;91.80;;;;;;5051040;28;20477;-71
2022/09/09 10:13:50;;;;;;;1.53;1.40;;;24.70;92.00;;;;;;5052183;28;20465;-71
2022/09/09 10:16:35;;;;;;;1.50;1.37;;;24.70;89.20;;;;;;5054510;28;20598;-71
2022/09/09 10:19:06;;;;;;;1.67;1.30;;;24.60;88.70;;;;;;5054835;28;20487;-71
2022/09/09 10:21:52;;;;;;;1.30;1.20;;;24.50;84.60;;;;;;5054827;28;20491;-70
2022/09/09 10:24:44;;;;;;;1.53;1.30;;;24.20;85.10;;;;;;5055405;28;20457;-70
2022/09/09 10:27:19;;;;;;;1.50;1.20;;;23.90;84.80;;;;;;5007551;28;20537;-70
2022/09/09 10:30:02;;;;;;;1.70;1.40;;;23.90;85.90;;;;;;5054898;28;20483;-71
2022/09/09 10:32:40;;;;;;;1.40;1.23;;;23.80;89.30;;;;;;5054653;28;20493;-70
2022/09/09 10:35:14;;;;;;;2.17;1.40;;;23.70;89.90;;;;;;5054932;28;20519;-70
2022/09/09 10:38:00;;;;;;;2.60;1.30;;;23.90;89.50;;;;;;5054433;28;20487;-70
2022/09/09 10:40:34;;;;;;;1.47;1.30;;;24.20;89.40;;;;;;5054753;28;20458;-70
2022/09/09 10:43:12;;;;;;;4.17;1.40;;;24.50;87.60;;;;;;5036786;28;20840;-70
2022/09/09 10:45:48;;;;;;;2.63;1.40;;;24.60;88.60;;;;;;5054709;28;20458;-70
2022/09/09 10:48:38;;;;;;;1.47;1.40;;;25.00;87.30;;;;;;5053837;28;20460;-71
2022/09/09 10:51:21;;;;;;;1.50;1.40;;;25.40;86.60;;;;;;5054295;28;20972;-70
2022/09/09 10:54:02;;;;;;;1.67;1.30;;;25.30;85.40;;;;;;5054210;28;20469;-70
2022/09/09 10:56:31;;;;;;;3.50;1.70;;;25.30;85.70;;;;;;5054298;28;20878;-71
2022/09/09 10:59:06;;;;;;;2.13;1.50;;;25.10;86.40;;;;;;5036787;28;20458;-71
2022/09/09 11:01:38;;;;;;;2.10;1.37;;;25.20;86.60;;;;;;5053683;28;20507;-72
2022/09/09 11:04:14;;;;;;;2.13;1.53;;;25.70;87.30;;;;;;5054016;28;20465;-71
2022/09/09 11:06:46;;;;;;;1.27;1.20;;;26.10;85.80;;;;;;5035943;28;20880;-70
2022/09/09 11:09:26;;;;;;;1.50;1.20;;;26.20;82.90;;;;;;5036765;28;20865;-70
2022/09/09 11:11:55;;;;;;;1.60;1.30;;;26.40;84.80;;;;;;5054049;28;20457;-71
2022/09/09 11:14:30;;;;;;;2.40;1.47;;;26.80;83.50;;;;;;5053781;28;20496;-71
2022/09/09 11:17:01;;;;;;;1.40;1.40;;;26.50;82.60;;;;;;5054125;28;20480;-70
2022/09/09 11:19:35;;;;;;;1.50;1.40;;;26.20;83.80;;;;;;5053951;28;20461;-71
2022/09/09 11:22:05;;;;;;;2.33;1.40;;;26.30;84.20;;;;;;5053980;28;20552;-70
2022/09/09 11:24:38;;;;;;;1.40;1.30;;;26.10;81.90;;;;;;5053443;28;20963;-71
2022/09/09 11:27:12;;;;;;;1.50;1.40;;;26.30;81.70;;;;;;5036615;28;20457;-72
2022/09/09 11:30:05;;;;;;;1.40;1.27;;;26.50;80.90;;;;;;5053893;28;20496;-71
2022/09/09 11:33:22;;;;;;;1.73;1.40;;;27.00;82.10;;;;;;5053648;28;20457;-70
2022/09/09 11:36:03;;;;;;;2.10;1.60;;;27.40;81.00;;;;;;4953441;28;20493;-71
2022/09/09 11:38:38;;;;;;;1.50;1.40;;;27.80;78.90;;;;;;4953368;28;20564;-71
2022/09/09 11:41:08;;;;;;;1.70;1.33;;;27.80;78.20;;;;;;5011469;28;20454;-70
2022/09/09 11:43:43;;;;;;;1.63;1.20;;;27.40;78.50;;;;;;5053379;28;20540;-70
2022/09/09 11:46:11;;;;;;;1.63;1.50;;;26.70;79.50;;;;;;5052787;28;20967;-71
2022/09/09 11:48:45;;;;;;;1.77;1.60;;;26.00;79.80;;;;;;5053214;28;20449;-71
2022/09/09 11:51:26;;;;;;;1.30;1.20;;;25.40;82.10;;;;;;5052858;28;20512;-70
2022/09/09 11:53:58;;;;;;;2.37;1.50;;;24.80;84.10;;;;;;5053102;28;20888;-70
2022/09/09 11:56:28;;;;;;;1.87;1.37;;;24.20;86.80;;;;;;5052223;28;20521;-71
2022/09/09 11:59:00;;;;;;;3.60;1.60;;;23.70;88.20;;;;;;5053175;28;20469;-70
2022/09/09 12:01:35;;;;;;;1.40;1.23;;;23.20;93.80;;;;;;5052794;28;20457;-71
2022/09/09 12:04:39;;;;;;;3.50;1.30;;;22.30;98.00;;;;;;5052177;28;20446;-71
2022/09/09 12:07:30;;;;;;;2.07;1.40;;;21.30;98.00;;;;;;5051952;28;20474;-70
2022/09/09 12:10:00;;;;;;;1.50;1.30;;;20.90;98.00;;;;;;5052074;28;20457;-71
2022/09/09 12:12:33;;;;;;;1.60;1.30;;;20.80;98.00;;;;;;5051876;28;20469;-69
2022/09/09 12:15:03;;;;;;;1.40;1.20;;;20.60;98.00;;;;;;5052092;28;20458;-70
2022/09/09 12:17:37;;;;;;;1.40;1.40;;;20.30;98.00;;;;;;5051837;28;20497;-71
2022/09/09 12:20:13;;;;;;;2.20;1.30;;;20.50;98.00;;;;;;5052007;28;20454;-71
2022/09/09 12:23:04;;;;;;;1.93;1.40;;;21.40;98.00;;;;;;5051996;28;20825;-70
2022/09/09 12:25:56;;;;;;;1.40;1.30;;;22.50;98.00;;;;;;5034841;28;20450;-70
2022/09/09 12:28:32;;;;;;;1.30;1.20;;;23.50;98.00;;;;;;5050615;28;20469;-72
2022/09/09 12:31:08;;;;;;;1.70;1.30;;;24.20;98.00;;;;;;5051802;28;20457;-71
2022/09/09 12:33:36;;;;;;;1.63;1.40;;;24.50;98.00;;;;;;5029416;28;20467;-72
2022/09/09 12:36:06;;;;;;;1.53;1.30;;;25.00;98.00;;;;;;5031184;28;20835;-71
2022/09/09 12:38:37;;;;;;;2.17;1.40;;;25.40;96.20;;;;;;5032141;28;20905;-70
2022/09/09 12:41:05;;;;;;;4.43;1.70;;;25.80;98.00;;;;;;5031565;28;20463;-72
2022/09/09 12:43:33;;;;;;;1.57;1.30;;;26.20;96.80;;;;;;5014433;28;20458;-71
2022/09/09 12:46:04;;;;;;;2.53;1.50;;;26.40;93.20;;;;;;5031631;28;20932;-72
2022/09/09 12:48:45;;;;;;;1.60;1.40;;;26.60;93.00;;;;;;5014095;28;20469;-71
2022/09/09 12:51:22;;;;;;;1.57;1.40;;;26.80;93.10;;;;;;5031540;28;20460;-72
2022/09/09 12:53:52;;;;;;;1.27;1.20;;;26.80;91.60;;;;;;5031973;28;20459;-72
2022/09/09 12:56:22;;;;;;;1.50;1.43;;;26.50;91.70;;;;;;5031416;28;20482;-71
2022/09/09 12:58:52;;;;;;;1.47;1.20;;;26.10;91.20;;;;;;5031977;28;20941;-71
2022/09/09 13:01:23;;;;;;;1.83;1.43;;;25.50;91.70;;;;;;5032131;28;20857;-71
2022/09/09 13:03:50;;;;;;;2.23;1.50;;;25.40;93.80;;;;;;5014391;28;20960;-71
2022/09/09 13:06:22;;;;;;;1.80;1.27;;;25.30;91.50;;;;;;5031759;28;20949;-71
2022/09/09 13:08:51;;;;;;;1.50;1.40;;;25.80;96.40;;;;;;5014758;28;20466;-71
2022/09/09 13:11:22;;;;;;;1.67;1.43;;;26.20;91.90;;;;;;5031131;28;20459;-71